Latest Coastal Weather Observations for Yanakie

IDV60701

Issued at 8:15 pm EST Thursday 24 April 2014 (issued every 10 minutes, with the page automatically refreshed every 10 minutes)

About coastal observations | Map of coastal stations | Coastal observations for VIC | Marine services | Other Formats
Station Details ID: 085301 Name: YANAKIE Lat: -38.81 Lon: 146.19 Height: 13.3 m
Data from the previous 72 hours. | See also: Recent months for locations in Victoria
Date/Time
EST
Temp

°C
Wind Pressure Rain
since 9am
mm
Weather Cloud Vis
km
Sea
Height
m
Swell
Dir
 
Speed
knots
Gust
knots
hPa Trend Height
m
Period
s
Dir
24/08:00pm 12.0 WSW 6 8 1020.3 - 0.0 - - - - - - -
24/07:30pm 12.6 WSW 8 10 1020.1 - 0.0 - - - - - - -
24/07:00pm 12.5 WSW 9 12 1019.7 - 0.0 - - - - - - -
24/06:30pm 12.2 WSW 11 14 1019.3 - 0.0 - - - - - - -
24/06:00pm 13.0 WSW 13 18 1018.7 - 0.0 - - - - - - -
24/05:30pm 12.9 WSW 10 15 1018.2 - 0.0 - - - - - - -
24/05:00pm 12.8 SW 13 19 1017.9 - 0.0 - - - - - - -
24/04:30pm 13.8 WSW 17 21 1017.5 - 0.0 - - - - - - -
24/04:00pm 14.3 WSW 16 23 1017.2 - 0.0 - - - - - - -
24/03:30pm 14.4 WSW 18 24 1016.9 - 0.0 - - - - - - -
24/03:00pm 15.4 WSW 19 24 1016.6 - 0.0 - - - - - - -
24/02:30pm 14.9 WSW 19 27 1016.2 - 0.0 - - - - - - -
24/02:00pm 15.0 WSW 20 27 1015.8 - 0.0 - - - - - - -
24/01:30pm 15.4 WSW 21 29 1015.6 - 0.0 - - - - - - -
24/01:12pm 14.8 W 25 35 1015.4 - 0.0 - - - - - - -
24/01:00pm 15.6 W 26 34 1015.1 - 0.0 - - - - - - -
24/12:30pm 15.5 W 27 34 1014.8 - 0.0 - - - - - - -
24/12:11pm 16.0 W 23 34 1014.8 - 0.0 - - - - - - -
24/12:00pm 16.1 W 22 30 1014.8 - 0.0 - - - - - - -
24/11:30am 15.9 W 23 32 1014.6 - 0.0 - - - - - - -
24/11:00am 15.6 WSW 25 32 1014.3 - 0.0 - - - - - - -
24/10:30am 15.4 WSW 25 34 1013.7 - 0.0 - - - - - - -
24/10:00am 14.2 WSW 24 30 1013.2 - 0.0 - - - - - - -
24/09:36am 14.7 WSW 18 28 1012.7 - 0.0 - - - - - - -
24/09:30am 14.3 WSW 16 21 1012.6 - 0.0 - - - - - - -
24/09:00am 13.9 WSW 18 26 1012.0 - 2.0 Recent precip. - - - - - -
24/08:30am 12.8 W 14 20 1011.3 - 2.0 - - - - - - -
24/08:00am 12.2 WNW 14 24 1010.6 - 1.0 - - - - - - -
24/07:38am 14.8 WNW 15 26 1009.4 - 0.0 - - - - - - -
24/07:30am 14.4 WNW 14 20 1009.1 - 0.0 - - - - - - -
24/07:05am 14.8 NW 16 30 1008.9 - 0.0 - - - - - - -
24/07:00am 14.7 NW 16 23 1008.8 - 0.0 - - - - - - -
24/06:30am 14.6 NW 15 23 1008.5 - 0.0 - - - - - - -
24/06:00am 14.3 NW 14 20 1008.3 - 0.0 - - - - - - -
24/05:30am 13.9 NW 14 22 1008.6 - 0.0 - - - - - - -
24/05:00am 13.9 NW 13 19 1008.2 - 0.0 - - - - - - -
24/04:30am 13.8 NW 12 16 1008.2 - 0.0 - - - - - - -
24/04:00am 13.4 NNW 11 16 1008.3 - 0.0 - - - - - - -
24/03:30am 13.5 NNW 12 16 1008.4 - 0.0 - - - - - - -
24/03:00am 13.2 NNW 13 18 1008.6 - 0.0 - - - - - - -
24/02:30am 12.5 NNW 10 15 1009.2 - 0.0 - - - - - - -
24/02:00am 11.9 NNW 9 14 1009.6 - 0.0 - - - - - - -
24/01:30am 11.4 NNW 8 11 1010.0 - 0.0 - - - - - - -
24/01:00am 11.2 N 5 9 1010.5 - 0.0 - - - - - - -
24/12:30am 11.1 N 5 8 1010.9 - 0.0 - - - - - - -
24/12:00am 10.4 N 5 6 1011.2 - 0.0 - - - - - - -
 
Date/Time
EST
Temp

°C
Wind Pressure Rain
since 9am
mm
Weather Cloud Vis
km
Sea
Height
m
Swell
Dir
 
Speed
knots
Gust
knots
hPa Trend Height
m
Period
s
Dir
23/11:30pm 9.7 N 5 6 1011.5 - 0.0 - - - - - - -
23/11:00pm 10.4 NNE 4 5 1011.9 - 0.0 - - - - - - -
23/10:30pm 10.7 NNE 4 5 1012.3 - 0.0 - - - - - - -
23/10:00pm 10.4 NE 3 4 1012.5 - 0.0 - - - - - - -
23/09:30pm 9.3 N 2 3 1012.7 - 0.0 - - - - - - -
23/09:00pm 9.1 N 3 4 1012.9 - 0.0 - - - - - - -
23/08:30pm 10.6 N 4 4 1012.9 - 0.0 - - - - - - -
23/08:00pm 10.0 N 3 4 1013.0 - 0.0 - - - - - - -
23/07:30pm 9.8 N 3 3 1013.2 - 0.0 - - - - - - -
23/07:00pm 10.8 NNW 2 2 1013.2 - 0.0 - - - - - - -
23/06:30pm 10.9 NW 2 3 1013.3 - 0.0 - - - - - - -
23/06:00pm 11.8 WNW 2 2 1013.3 - 0.0 - - - - - - -
23/05:30pm 14.0 W 4 5 1013.1 - 0.0 - - - - - - -
23/05:00pm 15.6 W 5 7 1013.2 - 0.0 - - - - - - -
23/04:30pm 16.3 W 5 7 1013.2 - 0.0 - - - - - - -
23/04:00pm 17.1 W 6 8 1013.2 - 0.0 - - - - - - -
23/03:30pm 16.8 WSW 6 8 1013.3 - 0.0 - - - - - - -
23/03:00pm 16.9 WSW 7 9 1013.3 - 0.0 - - - - - - -
23/02:30pm 17.9 WSW 8 12 1013.4 - 0.0 - - - - - - -
23/02:00pm 17.7 WSW 10 14 1013.6 - 0.0 - - - - - - -
23/01:30pm 17.4 WSW 10 12 1013.9 - 0.0 - - - - - - -
23/01:00pm 18.3 WNW 4 8 1014.0 - 0.0 - - - - - - -
23/12:30pm 18.9 NW 3 5 1014.5 - 0.0 - - - - - - -
23/12:00pm 17.4 WSW 2 4 1015.1 - 0.0 - - - - - - -
23/11:30am 18.1 SW 4 7 1015.5 - 0.0 - - - - - - -
23/11:00am 17.7 WSW 4 7 1015.8 - 0.0 - - - - - - -
23/10:30am 17.9 NNW 2 5 1016.1 - 0.0 - - - - - - -
23/10:00am 16.7 NNW 2 4 1016.3 - 0.0 - - - - - - -
23/09:30am 16.7 N 2 3 1016.2 - 0.0 - - - - - - -
23/09:00am 15.2 N 2 3 1016.4 - 0.6 - - - - - - -
23/08:30am 15.8 N 1 2 1016.4 - 0.6 - - - - - - -
23/08:00am 12.2 N 1 2 1016.4 - 0.6 - - - - - - -
23/07:30am 10.4 N 2 2 1016.4 - 0.6 - - - - - - -
23/07:00am 10.3 CALM 0 0 1016.4 - 0.6 - - - - - - -
23/06:30am 10.9 N 2 3 1016.2 - 0.6 - - - - - - -
23/06:00am 10.9 N 3 4 1016.2 - 0.6 - - - - - - -
23/05:30am 11.0 N 3 4 1016.0 - 0.6 - - - - - - -
23/05:00am 11.3 NE 4 4 1016.1 - 0.6 - - - - - - -
23/04:30am 10.3 NE 3 4 1016.0 - 0.6 - - - - - - -
23/04:00am 9.6 NNW 1 2 1016.0 - 0.6 - - - - - - -
23/03:30am 9.3 N 1 2 1016.0 - 0.6 - - - - - - -
23/03:00am 9.6 N 2 2 1016.1 - 0.6 - - - - - - -
23/02:30am 9.2 CALM 0 0 1016.4 - 0.6 - - - - - - -
23/02:00am 9.9 N 3 4 1016.7 - 0.6 - - - - - - -
23/01:30am 9.2 N 4 5 1016.8 - 0.6 - - - - - - -
23/01:00am 9.0 N 2 3 1016.9 - 0.6 - - - - - - -
23/12:30am 9.5 WNW 1 2 1016.9 - 0.6 - - - - - - -
23/12:00am 10.2 NW 2 3 1017.1 - 0.6 - - - - - - -
 
Date/Time
EST
Temp

°C
Wind Pressure Rain
since 9am
mm
Weather Cloud Vis
km
Sea
Height
m
Swell
Dir
 
Speed
knots
Gust
knots
hPa Trend Height
m
Period
s
Dir
22/11:30pm 11.0 WNW 3 4 1017.4 - 0.6 - - - - - - -
22/11:00pm 11.9 NW 3 4 1017.5 - 0.6 - - - - - - -
22/10:30pm 12.6 N 2 2 1017.6 - 0.6 - - - - - - -
22/10:00pm 12.8 WNW 2 2 1017.6 - 0.6 - - - - - - -
22/09:30pm 12.8 NNW 2 4 1017.4 - 0.6 - - - - - - -
22/09:00pm 12.1 SSW 2 4 1016.9 - 0.6 - - - - - - -
22/08:30pm 13.1 SW 2 3 1016.9 - 0.6 - - - - - - -
22/08:00pm 14.3 SW 5 7 1016.8 - 0.6 - - - - - - -
22/07:30pm 14.8 SW 5 8 1016.7 - 0.6 - - - - - - -
22/07:00pm 15.0 WSW 6 9 1016.3 - 0.6 - - - - - - -
22/06:30pm 14.9 SW 7 11 1015.9 - 0.6 - - - - - - -
22/06:00pm 15.4 WSW 8 11 1015.4 - 0.6 - - - - - - -
22/05:30pm 15.4 WSW 8 11 1014.9 - 0.6 - - - - - - -
22/05:00pm 15.6 WSW 8 10 1014.7 - 0.6 - - - - - - -
22/04:30pm 15.8 WSW 7 9 1014.4 - 0.6 - - - - - - -
22/04:00pm 15.8 WSW 9 12 1014.3 - 0.6 - - - - - - -
22/03:30pm 16.4 W 13 19 1014.0 - 0.6 - - - - - - -
22/03:00pm 17.4 W 12 18 1013.7 - 0.6 - - - - - - -
22/02:30pm 17.5 WNW 13 18 1013.5 - 0.6 - - - - - - -
22/02:00pm 17.5 WNW 11 17 1013.5 - 0.6 - - - - - - -
22/01:30pm 18.9 WNW 13 19 1013.4 - 0.6 - - - - - - -
22/01:00pm 18.1 WNW 15 22 1013.4 - 0.6 - - - - - - -
22/12:30pm 17.6 WNW 13 20 1013.4 - 0.6 - - - - - - -
22/12:00pm 17.5 NW 15 20 1013.5 - 0.6 - - - - - - -
22/11:30am 18.0 NW 16 24 1013.8 - 0.6 - - - - - - -
22/11:00am 16.9 NW 15 21 1013.9 - 0.6 - - - - - - -
22/10:30am 16.1 NNW 14 18 1013.5 - 0.6 - - - - - - -
22/10:00am 14.7 NNW 11 17 1013.7 - 0.6 - - - - - - -
22/09:30am 14.1 NNW 14 19 1013.8 - 0.4 - - - - - - -
22/09:00am 13.4 NNW 17 25 1013.9 - 5.4 Rain - - - - - -
22/08:49am 13.6 NNW 17 28 1014.3 - 4.8 - - - - - - -
22/08:30am 13.6 NNW 14 20 1014.6 - 4.4 - - - - - - -
22/08:00am 13.4 NW 15 21 1014.7 - 3.8 - - - - - - -
22/07:30am 13.5 NW 16 23 1014.6 - 2.8 - - - - - - -
22/07:19am 13.2 WNW 15 22 1014.6 - 2.6 - - - - - - -
22/07:00am 13.4 NW 7 9 1014.5 - 1.2 - - - - - - -
22/06:30am 14.6 NNW 6 9 1013.4 - 0.2 - - - - - - -
22/06:00am 14.4 WNW 2 3 1013.6 - 0.2 - - - - - - -
22/05:30am 14.7 N 2 3 1013.1 - 0.2 - - - - - - -
22/05:00am 14.9 NNW 3 5 1012.6 - 0.2 - - - - - - -
22/04:30am 15.3 W 5 7 1012.3 - 0.2 - - - - - - -
22/04:00am 15.5 W 6 10 1012.5 - 0.2 - - - - - - -
22/03:30am 15.9 W 13 19 1013.0 - 0.2 - - - - - - -
22/03:00am 15.9 WSW 7 11 1013.0 - 0.2 - - - - - - -
22/02:30am 15.2 W 9 10 1012.6 - 0.2 - - - - - - -
22/02:00am 15.1 SW 8 10 1012.1 - 0.2 - - - - - - -
22/01:30am 15.8 SW 13 18 1012.3 - 0.2 - - - - - - -
22/01:00am 16.6 N 3 5 1011.9 - 0.2 - - - - - - -
22/12:30am 17.1 N 5 9 1012.0 - 0.2 - - - - - - -
22/12:00am 17.2 NNW 5 8 1012.2 - 0.2 - - - - - - -
 
Date/Time
EST
Temp

°C
Wind Pressure Rain
since 9am
mm
Weather Cloud Vis
km
Sea
Height
m
Swell
Dir
 
Speed
knots
Gust
knots
hPa Trend Height
m
Period
s
Dir
21/11:30pm 17.4 N 7 9 1012.3 - 0.2 - - - - - - -
21/11:00pm 17.4 N 5 9 1012.5 - 0.2 - - - - - - -
21/10:30pm 16.4 NE 3 5 1012.7 - 0.2 - - - - - - -
21/10:00pm 16.7 NE 4 7 1012.7 - 0.2 - - - - - - -
21/09:30pm 16.7 NE 4 6 1013.0 - 0.2 - - - - - - -
21/09:00pm 16.7 NNE 6 7 1013.2 - 0.2 - - - - - - -
21/08:30pm 16.1 NE 4 5 1013.4 - 0.2 - - - - - - -

Other Formats:

Comma delimited format used in spreadsheet applications
http://www.bom.gov.au/fwo/IDV60701/IDV60701.94911.axf

JavaScript Object Notation format (JSON) in row-major order
http://www.bom.gov.au/fwo/IDV60701/IDV60701.94911.json